Scottsboro, Alabama
Current Conditions -  °F | °C
As of 8:55 PM on Thursday 27 Nov 2014 (Local Time) from K4A6 Reporting Station
Overcast Overcast  
Wind Chill: 36°   Ceiling: 4100
Heat Index: 36°   Visibility: 10mi
Dew Point: 25°   Wind: 3mph
Humidity: 65%   Direction: 320°NW
Pressure: 30.44"   Gusts: NA
Location:  34.68°N, 86.08°W
Report Text: K4A6 280255Z AUTO 32003KT 10SM OVC041 02/M04 A3044 RMK AO2
Loading
Personal Weather Stations






























Interactive Weather Map New forecast layout! Learn more

10-Day Weather Forecast

Advertisements
Track Severe Weather on mobile